Ciudad Real, Puerto Rico
Current Conditions -  °F | °C
As of 4:56 PM on Wednesday 17 Dec 2014 (Local Time) from TJSJ Reporting Station
Scattered Clouds Scattered Clouds  
Wind Chill: 81°   Ceiling: Unl
Heat Index: 84°   Visibility: 10mi
Dew Point: 68°   Wind: 7mph
Humidity: 65%   Direction: 360°N
Pressure: 30"   Gusts: NA
Location:  18.4061°N, 66.3012°W
Report Text: TJSJ 172056Z 36006KT 10SM SCT029 SCT038 27/20 A3000 RMK AO2 SLP159 T02720200 55000
Loading
Personal Weather Stations






























Interactive Weather Map New forecast layout! Learn more

10-Day Weather Forecast

Advertisements
Track Severe Weather on mobile